createdAt,value
2023-02-08T00:00:40.533Z,15.30
2023-02-08T00:03:09.615Z,14.30
2023-02-08T00:05:22.260Z,14.80
2023-02-08T00:07:34.806Z,15.20
2023-02-08T00:09:47.469Z,14.30
2023-02-08T00:12:00.048Z,14.90
2023-02-08T00:14:12.691Z,15.20
2023-02-08T00:16:25.540Z,15.60
2023-02-08T00:18:38.133Z,16.20
2023-02-08T00:20:51.376Z,15.00
2023-02-08T00:23:03.935Z,14.70
2023-02-08T00:25:16.522Z,14.90
2023-02-08T00:27:29.148Z,14.20
2023-02-08T00:29:41.677Z,12.90
2023-02-08T00:31:54.319Z,14.00
2023-02-08T00:34:07.043Z,14.00
2023-02-08T00:36:19.694Z,13.50
2023-02-08T00:38:32.352Z,15.10
2023-02-08T00:40:44.971Z,14.80
2023-02-08T00:42:57.611Z,14.00
2023-02-08T00:45:10.467Z,14.50
2023-02-08T00:47:23.542Z,15.50
2023-02-08T00:49:36.431Z,16.90
2023-02-08T00:51:49.208Z,17.40
2023-02-08T00:54:01.923Z,17.00
2023-02-08T00:56:15.854Z,16.50
2023-02-08T00:58:28.501Z,16.40
2023-02-08T01:00:41.519Z,19.50
2023-02-08T01:02:54.368Z,19.20
2023-02-08T01:05:07.946Z,17.60
2023-02-08T01:07:20.543Z,17.50
2023-02-08T01:09:33.652Z,17.20
2023-02-08T01:11:46.269Z,15.30
2023-02-08T01:13:59.339Z,16.20
2023-02-08T01:16:14.834Z,16.60
2023-02-08T01:18:27.480Z,17.70
2023-02-08T01:20:40.333Z,16.40
2023-02-08T01:22:53.129Z,17.80
2023-02-08T01:25:05.869Z,20.40
2023-02-08T01:27:18.420Z,19.90
2023-02-08T01:29:31.064Z,21.00
2023-02-08T01:31:45.213Z,21.80
2023-02-08T01:33:59.159Z,20.20
2023-02-08T01:36:12.271Z,17.40
2023-02-08T01:38:24.985Z,16.30
2023-02-08T01:40:37.642Z,16.90
2023-02-08T01:42:50.290Z,15.90
2023-02-08T01:45:23.017Z,15.70
2023-02-08T01:47:35.620Z,13.00
2023-02-08T01:49:48.345Z,13.10
2023-02-08T01:52:14.528Z,14.10
2023-02-08T01:54:30.413Z,16.80
2023-02-08T01:56:45.868Z,14.90
2023-02-08T01:59:01.739Z,13.20
2023-02-08T02:01:14.578Z,12.40
2023-02-08T02:03:27.435Z,12.40
2023-02-08T02:05:42.919Z,13.10
2023-02-08T02:07:57.473Z,11.40
2023-02-08T02:10:16.221Z,12.40
2023-02-08T02:12:31.843Z,11.50
2023-02-08T02:14:45.669Z,12.00
2023-02-08T02:17:00.793Z,11.60
2023-02-08T02:19:25.134Z,10.80
2023-02-08T02:21:48.606Z,12.10
2023-02-08T02:24:26.737Z,11.40
2023-02-08T02:27:17.080Z,12.70
2023-02-08T02:29:51.257Z,11.70
2023-02-08T02:32:23.462Z,11.50
2023-02-08T02:35:04.004Z,11.20
2023-02-08T02:37:37.633Z,11.70
2023-02-08T02:40:09.096Z,10.50
2023-02-08T02:43:01.579Z,11.50
2023-02-08T02:45:26.640Z,10.20
2023-02-08T02:47:49.729Z,11.20
2023-02-08T02:50:16.918Z,10.40
2023-02-08T02:52:39.514Z,10.10
2023-02-08T02:54:55.626Z,10.50
2023-02-08T02:57:14.930Z,9.20
2023-02-08T02:59:28.705Z,11.30
2023-02-08T03:01:44.132Z,10.00
2023-02-08T03:03:57.014Z,9.90
2023-02-08T03:06:20.149Z,7.70
2023-02-08T03:09:06.940Z,10.00
2023-02-08T03:11:31.610Z,10.40
2023-02-08T03:14:16.880Z,9.70
2023-02-08T03:17:00.697Z,10.80
2023-02-08T03:19:30.990Z,9.60
2023-02-08T03:21:51.207Z,9.20
2023-02-08T03:24:17.793Z,9.30
2023-02-08T03:26:37.714Z,7.90
2023-02-08T03:29:08.806Z,7.90
2023-02-08T03:31:38.180Z,7.10
2023-02-08T03:34:07.266Z,7.90
2023-02-08T03:36:27.366Z,8.10
2023-02-08T03:38:42.999Z,8.10
2023-02-08T03:40:59.856Z,7.70
2023-02-08T03:43:22.204Z,7.80
2023-02-08T03:45:43.752Z,8.90
2023-02-08T03:48:00.222Z,7.90
2023-02-08T03:50:17.369Z,8.70
2023-02-08T03:52:31.500Z,8.90
2023-02-08T03:54:52.001Z,9.20
2023-02-08T03:57:20.845Z,8.50
2023-02-08T03:59:38.783Z,8.90
2023-02-08T04:01:58.558Z,9.10
2023-02-08T04:04:14.149Z,10.80
2023-02-08T04:06:27.559Z,9.40
2023-02-08T04:08:40.134Z,11.00
2023-02-08T04:10:52.819Z,10.20
2023-02-08T04:13:05.368Z,10.80
2023-02-08T04:15:18.189Z,10.90
2023-02-08T04:17:32.239Z,11.80
2023-02-08T04:19:44.832Z,13.10
2023-02-08T04:21:57.430Z,13.20
2023-02-08T04:24:10.026Z,14.90
2023-02-08T04:26:22.600Z,13.70
2023-02-08T04:28:35.180Z,13.60
2023-02-08T04:30:47.873Z,14.10
2023-02-08T04:33:00.857Z,13.90
2023-02-08T04:35:13.508Z,14.70
2023-02-08T04:37:26.116Z,14.10
2023-02-08T04:39:38.805Z,17.00
2023-02-08T04:41:51.380Z,15.50
2023-02-08T04:44:04.014Z,14.20
2023-02-08T04:46:16.945Z,15.40
2023-02-08T04:48:29.663Z,15.90
2023-02-08T04:50:42.701Z,16.50
2023-02-08T04:52:55.514Z,15.10
2023-02-08T04:55:08.256Z,14.90
2023-02-08T04:57:20.825Z,16.40
2023-02-08T04:59:33.339Z,16.00
2023-02-08T05:01:45.991Z,17.20
2023-02-08T05:03:58.534Z,16.60
2023-02-08T05:06:11.372Z,17.10
2023-02-08T05:08:23.979Z,15.50
2023-02-08T05:10:36.559Z,17.40
2023-02-08T05:12:49.154Z,18.40
2023-02-08T05:15:01.914Z,16.60
2023-02-08T05:17:14.546Z,18.10
2023-02-08T05:19:27.303Z,16.10
2023-02-08T05:21:40.012Z,18.00
2023-02-08T05:23:52.664Z,16.80
2023-02-08T05:26:07.686Z,18.10
2023-02-08T05:28:20.481Z,15.40
2023-02-08T05:30:33.118Z,15.20
2023-02-08T05:32:45.975Z,16.00
2023-02-08T05:34:58.581Z,16.00
2023-02-08T05:37:12.443Z,16.90
2023-02-08T05:39:24.994Z,17.00
2023-02-08T05:41:37.510Z,16.50
2023-02-08T05:43:50.106Z,46.20
2023-02-08T05:46:03.511Z,106.70
2023-02-08T05:48:16.059Z,78.70
2023-02-08T05:50:28.645Z,51.10
2023-02-08T05:52:41.339Z,53.40
2023-02-08T05:54:53.969Z,49.30
2023-02-08T05:57:06.567Z,40.10
2023-02-08T05:59:19.121Z,27.70
2023-02-08T06:01:31.886Z,27.30
2023-02-08T06:03:44.496Z,27.10
2023-02-08T06:06:04.122Z,17.30
2023-02-08T06:08:16.944Z,17.20
2023-02-08T06:10:29.528Z,18.00
2023-02-08T06:12:42.096Z,18.50
2023-02-08T06:14:54.688Z,17.40
2023-02-08T06:17:07.275Z,19.10
2023-02-08T06:19:19.875Z,18.20
2023-02-08T06:21:32.652Z,18.60
2023-02-08T06:23:45.314Z,16.70
2023-02-08T06:25:58.240Z,18.60
2023-02-08T06:28:10.960Z,14.90
2023-02-08T06:30:23.602Z,14.10
2023-02-08T06:32:36.188Z,16.50
2023-02-08T06:34:50.628Z,16.00
2023-02-08T06:37:05.564Z,17.70
2023-02-08T06:39:18.176Z,18.20
2023-02-08T06:41:30.742Z,14.30
2023-02-08T06:43:43.326Z,15.30
2023-02-08T06:45:55.857Z,16.10
2023-02-08T06:48:08.456Z,17.80
2023-02-08T06:50:23.164Z,18.90
2023-02-08T06:52:37.142Z,20.70
2023-02-08T06:54:49.735Z,19.40
2023-02-08T06:57:02.253Z,17.70
2023-02-08T06:59:14.790Z,15.30
2023-02-08T07:01:27.359Z,18.90
2023-02-08T07:03:40.975Z,18.80
2023-02-08T07:06:04.457Z,17.00
2023-02-08T07:08:17.688Z,18.10
2023-02-08T07:10:30.237Z,17.40
2023-02-08T07:12:42.766Z,17.60
2023-02-08T07:14:55.358Z,15.50
2023-02-08T07:17:07.980Z,16.00
2023-02-08T07:19:20.549Z,16.20
2023-02-08T07:21:33.447Z,16.60
2023-02-08T07:23:45.933Z,19.30
2023-02-08T07:25:59.948Z,16.50
2023-02-08T07:28:12.502Z,20.40
2023-02-08T07:30:25.053Z,20.10
2023-02-08T07:32:37.570Z,26.20
2023-02-08T07:34:50.278Z,29.90
2023-02-08T07:37:02.824Z,33.50
2023-02-08T07:39:15.371Z,30.80
2023-02-08T07:41:27.894Z,29.20
2023-02-08T07:43:42.044Z,34.20
2023-02-08T07:45:55.055Z,36.40
2023-02-08T07:48:07.728Z,38.80
2023-02-08T07:50:20.344Z,34.40
2023-02-08T07:52:32.996Z,33.00
2023-02-08T07:54:45.502Z,30.90
2023-02-08T07:56:58.137Z,28.40
2023-02-08T07:59:11.130Z,27.90
2023-02-08T08:01:23.813Z,29.30
2023-02-08T08:03:36.598Z,28.70
2023-02-08T08:05:53.071Z,26.40
2023-02-08T08:08:06.838Z,24.80
2023-02-08T08:10:19.404Z,26.60
2023-02-08T08:12:31.944Z,24.10
2023-02-08T08:14:44.495Z,27.90
2023-02-08T08:16:57.040Z,25.60
2023-02-08T08:19:09.623Z,25.30
2023-02-08T08:21:22.175Z,28.30
2023-02-08T08:23:36.123Z,24.60
2023-02-08T08:25:48.777Z,25.40
2023-02-08T08:28:02.157Z,25.70
2023-02-08T08:30:16.724Z,26.30
2023-02-08T08:32:29.423Z,26.10
2023-02-08T08:34:42.055Z,27.50
2023-02-08T08:36:54.628Z,25.40
2023-02-08T08:39:07.240Z,29.50
2023-02-08T08:41:22.344Z,26.10
2023-02-08T08:43:35.196Z,27.40
2023-02-08T08:45:49.142Z,29.00
2023-02-08T08:48:04.118Z,26.10
2023-02-08T08:50:16.731Z,29.60
2023-02-08T08:52:29.319Z,29.30
2023-02-08T08:54:41.933Z,26.50
2023-02-08T08:56:54.492Z,24.40
2023-02-08T08:59:06.976Z,25.60
2023-02-08T09:01:19.571Z,28.50
2023-02-08T09:03:32.368Z,26.70
2023-02-08T09:05:46.344Z,24.50
2023-02-08T09:07:58.846Z,25.40
2023-02-08T09:10:11.427Z,23.30
2023-02-08T09:12:23.972Z,24.20
2023-02-08T09:14:36.541Z,26.30
2023-02-08T09:16:49.215Z,26.20
2023-02-08T09:19:07.080Z,22.10
2023-02-08T09:21:22.372Z,23.90
2023-02-08T09:23:35.647Z,23.00
2023-02-08T09:25:50.088Z,22.40
2023-02-08T09:28:02.731Z,23.00
2023-02-08T09:30:15.326Z,22.10
2023-02-08T09:32:34.026Z,23.10
2023-02-08T09:34:47.034Z,23.30
2023-02-08T09:36:59.552Z,22.30
2023-02-08T09:39:18.856Z,21.90
2023-02-08T09:41:37.117Z,22.90
2023-02-08T09:44:07.759Z,24.40
2023-02-08T09:46:24.524Z,22.70
2023-02-08T09:48:40.997Z,23.00
2023-02-08T09:51:04.036Z,23.50
2023-02-08T09:53:34.307Z,24.60
2023-02-08T09:55:51.190Z,23.50
2023-02-08T09:58:15.868Z,25.90
2023-02-08T10:00:40.860Z,24.70
2023-02-08T10:02:57.808Z,25.10
2023-02-08T10:05:14.984Z,23.50
2023-02-08T10:07:28.810Z,23.90
2023-02-08T10:09:41.364Z,23.20
2023-02-08T10:12:22.394Z,22.40
2023-02-08T10:15:02.343Z,21.90
2023-02-08T10:17:34.249Z,21.20
2023-02-08T10:20:23.229Z,23.60
2023-02-08T10:22:54.155Z,18.80
2023-02-08T10:25:29.580Z,20.20
2023-02-08T10:28:20.749Z,19.50
2023-02-08T10:31:06.076Z,19.00
2023-02-08T10:33:28.841Z,19.10
2023-02-08T10:35:46.690Z,22.20
2023-02-08T10:37:59.374Z,21.10
2023-02-08T10:40:36.515Z,19.70
2023-02-08T10:43:19.510Z,19.90
2023-02-08T10:46:01.403Z,21.80
2023-02-08T10:48:29.363Z,21.30
2023-02-08T10:50:44.233Z,22.80
2023-02-08T10:52:56.793Z,20.80
2023-02-08T10:55:18.176Z,24.60
2023-02-08T10:57:34.842Z,23.40
2023-02-08T10:59:51.036Z,24.60
2023-02-08T11:02:20.083Z,23.00
2023-02-08T11:04:32.712Z,23.70
2023-02-08T11:06:47.698Z,24.70
2023-02-08T11:09:00.391Z,24.00
2023-02-08T11:11:12.952Z,24.10
2023-02-08T11:13:36.775Z,24.00
2023-02-08T11:16:01.433Z,26.60
2023-02-08T11:18:19.349Z,24.80
2023-02-08T11:20:40.118Z,25.20
2023-02-08T11:22:52.766Z,27.10
2023-02-08T11:25:07.099Z,25.40
2023-02-08T11:27:28.551Z,28.50
2023-02-08T11:29:41.173Z,26.40
2023-02-08T11:31:58.075Z,27.40
2023-02-08T11:34:11.513Z,28.00
2023-02-08T11:36:24.138Z,28.80
2023-02-08T11:38:42.415Z,29.00
2023-02-08T11:40:59.511Z,31.60
2023-02-08T11:43:32.358Z,27.90
2023-02-08T11:45:46.716Z,32.40
2023-02-08T11:48:01.660Z,30.00
2023-02-08T11:50:34.351Z,29.70
2023-02-08T11:53:14.223Z,32.50
2023-02-08T11:55:29.694Z,30.90
2023-02-08T11:58:01.211Z,32.40
2023-02-08T12:00:26.501Z,31.70
2023-02-08T12:02:40.986Z,30.50
2023-02-08T12:04:53.771Z,32.00
2023-02-08T12:07:17.350Z,30.30
2023-02-08T12:10:11.032Z,32.20
2023-02-08T12:12:39.666Z,30.80
2023-02-08T12:15:29.709Z,31.70
2023-02-08T12:18:07.423Z,28.90
2023-02-08T12:20:40.108Z,30.50
2023-02-08T12:23:27.753Z,30.10
2023-02-08T12:25:51.570Z,30.60
2023-02-08T12:28:29.936Z,32.50
2023-02-08T12:31:05.119Z,31.90
2023-02-08T12:33:37.561Z,34.10
2023-02-08T12:36:15.266Z,35.50
2023-02-08T12:39:17.981Z,31.40
2023-02-08T12:42:05.352Z,33.50
2023-02-08T12:44:51.224Z,33.10
2023-02-08T12:47:40.081Z,31.60
2023-02-08T12:50:24.435Z,35.00
2023-02-08T12:52:41.438Z,36.20
2023-02-08T12:55:02.872Z,33.40
2023-02-08T12:57:19.503Z,31.30
2023-02-08T12:59:39.112Z,32.30
2023-02-08T13:01:57.352Z,32.90
2023-02-08T13:04:36.070Z,31.20
2023-02-08T13:06:55.815Z,31.10
2023-02-08T13:09:22.001Z,28.60
2023-02-08T13:11:57.356Z,32.40
2023-02-08T13:14:31.861Z,29.40
2023-02-08T13:16:48.978Z,31.60
2023-02-08T13:19:34.199Z,31.80
2023-02-08T13:21:46.842Z,31.20
2023-02-08T13:24:00.465Z,31.50
2023-02-08T13:26:17.316Z,32.20
2023-02-08T13:28:30.404Z,29.80
2023-02-08T13:30:43.667Z,33.80
2023-02-08T13:32:57.719Z,31.60
2023-02-08T13:35:22.587Z,31.60
2023-02-08T13:37:35.937Z,31.10
2023-02-08T13:39:49.155Z,32.80
2023-02-08T13:42:04.256Z,31.10
2023-02-08T13:44:20.834Z,33.90
2023-02-08T13:46:45.010Z,30.60
2023-02-08T13:49:00.444Z,29.70
2023-02-08T13:51:33.260Z,29.90
2023-02-08T13:53:54.963Z,31.20
2023-02-08T13:56:34.551Z,33.10
2023-02-08T13:58:50.113Z,33.00
2023-02-08T14:01:08.828Z,32.60
2023-02-08T14:03:23.904Z,30.80
2023-02-08T14:06:10.405Z,32.00
2023-02-08T14:08:34.996Z,32.30
2023-02-08T14:11:02.594Z,30.00
2023-02-08T14:13:44.702Z,29.80
2023-02-08T14:16:29.566Z,33.10
2023-02-08T14:18:51.961Z,30.60
2023-02-08T14:21:07.301Z,31.80
2023-02-08T14:23:26.164Z,34.30
2023-02-08T14:25:45.188Z,32.70
2023-02-08T14:28:02.227Z,38.20
2023-02-08T14:30:17.774Z,31.60
2023-02-08T14:32:35.870Z,31.30
2023-02-08T14:34:48.803Z,35.30
2023-02-08T14:37:10.537Z,33.50
2023-02-08T14:39:28.978Z,36.20
2023-02-08T14:41:52.071Z,35.40
2023-02-08T14:44:39.578Z,34.10
2023-02-08T14:46:52.156Z,34.60
2023-02-08T14:49:18.067Z,36.70
2023-02-08T14:51:36.746Z,40.80
2023-02-08T14:53:56.849Z,42.90
2023-02-08T14:56:09.312Z,42.40
2023-02-08T14:58:27.847Z,42.90
2023-02-08T15:00:41.414Z,45.50
2023-02-08T15:02:54.594Z,41.40
2023-02-08T15:05:10.479Z,43.70
2023-02-08T15:07:42.506Z,42.60
2023-02-08T15:09:55.679Z,49.80
2023-02-08T15:12:23.908Z,45.70
2023-02-08T15:14:40.542Z,45.50
2023-02-08T15:16:55.377Z,50.60
2023-02-08T15:19:09.756Z,45.20
2023-02-08T15:21:36.522Z,43.10
2023-02-08T15:24:00.289Z,47.20
2023-02-08T15:26:23.435Z,51.20
2023-02-08T15:28:36.610Z,49.20
2023-02-08T15:31:09.192Z,45.00
2023-02-08T15:33:22.157Z,41.70
2023-02-08T15:35:35.433Z,39.20
2023-02-08T15:37:48.142Z,39.90
2023-02-08T15:40:02.672Z,39.30
2023-02-08T15:42:21.768Z,38.70
2023-02-08T15:44:34.948Z,38.40
2023-02-08T15:49:03.165Z,36.10
2023-02-08T15:51:16.877Z,43.20
2023-02-08T15:53:30.851Z,38.20
2023-02-08T15:55:50.533Z,41.10
2023-02-08T15:58:08.318Z,41.00
2023-02-08T16:00:31.672Z,39.10
2023-02-08T16:02:44.862Z,40.50
2023-02-08T16:04:58.963Z,42.40
2023-02-08T16:07:43.571Z,40.00
2023-02-08T16:09:57.153Z,44.70
2023-02-08T16:12:20.864Z,43.40
2023-02-08T16:14:50.690Z,45.00
2023-02-08T16:17:04.679Z,45.10
2023-02-08T16:19:32.475Z,43.30
2023-02-08T16:21:45.306Z,45.60
2023-02-08T16:24:11.152Z,44.30
2023-02-08T16:26:32.200Z,42.40
2023-02-08T16:28:52.411Z,43.80
2023-02-08T16:31:05.855Z,45.70
2023-02-08T16:33:19.518Z,47.10
2023-02-08T16:35:33.501Z,46.50
2023-02-08T16:37:46.214Z,43.70
2023-02-08T16:40:04.672Z,43.80
2023-02-08T16:42:29.957Z,44.40
2023-02-08T16:44:58.786Z,44.70
2023-02-08T16:47:34.464Z,45.60
2023-02-08T16:49:49.406Z,46.30
2023-02-08T16:52:02.041Z,46.70
2023-02-08T16:54:18.114Z,47.40
2023-02-08T16:56:30.979Z,51.80
2023-02-08T16:58:43.628Z,58.50
2023-02-08T17:00:57.651Z,59.30
2023-02-08T17:03:10.216Z,63.70
2023-02-08T17:05:26.945Z,59.10
2023-02-08T17:07:39.834Z,59.30
2023-02-08T17:09:52.436Z,59.70
2023-02-08T17:12:21.911Z,52.90
2023-02-08T17:14:35.151Z,50.60
2023-02-08T17:16:47.882Z,48.00
2023-02-08T17:19:01.121Z,48.80
2023-02-08T17:21:14.218Z,48.40
2023-02-08T17:23:27.136Z,48.70
2023-02-08T17:25:39.943Z,49.80
2023-02-08T17:28:03.002Z,50.00
2023-02-08T17:30:24.510Z,50.30
2023-02-08T17:32:37.154Z,51.00
2023-02-08T17:34:49.676Z,50.40
2023-02-08T17:37:02.636Z,51.20
2023-02-08T17:39:16.688Z,51.70
2023-02-08T17:41:29.428Z,54.30
2023-02-08T17:43:42.089Z,50.90
2023-02-08T17:45:54.779Z,50.70
2023-02-08T17:48:08.142Z,53.10
2023-02-08T17:50:21.706Z,50.10
2023-02-08T17:52:36.288Z,52.10
2023-02-08T17:54:48.866Z,50.10
2023-02-08T17:57:01.567Z,54.80
2023-02-08T17:59:14.161Z,52.70
2023-02-08T18:01:27.121Z,52.70
2023-02-08T18:03:39.800Z,50.60
2023-02-08T18:06:00.285Z,51.60
2023-02-08T18:08:12.815Z,53.20
2023-02-08T18:10:25.601Z,53.90
2023-02-08T18:12:38.557Z,52.30
2023-02-08T18:14:51.155Z,53.60
2023-02-08T18:17:03.884Z,51.10
2023-02-08T18:19:17.105Z,53.60
2023-02-08T18:21:33.190Z,52.50
2023-02-08T18:23:46.605Z,54.30
2023-02-08T18:26:11.728Z,52.90
2023-02-08T18:28:24.442Z,53.80
2023-02-08T18:30:37.105Z,54.40
2023-02-08T18:32:49.691Z,50.70
2023-02-08T18:35:04.116Z,51.20
2023-02-08T18:37:17.390Z,54.70
2023-02-08T18:39:30.066Z,47.80
2023-02-08T18:41:43.408Z,48.50
2023-02-08T18:43:57.913Z,49.50
2023-02-08T18:46:13.308Z,49.40
2023-02-08T18:48:26.003Z,50.60
2023-02-08T18:50:38.580Z,49.30
2023-02-08T18:52:51.176Z,49.70
2023-02-08T18:55:04.355Z,49.10
2023-02-08T18:57:17.133Z,47.40
2023-02-08T18:59:30.049Z,50.40
2023-02-08T19:01:42.897Z,50.60
2023-02-08T19:03:56.550Z,50.70
2023-02-08T19:06:11.839Z,53.30
2023-02-08T19:08:24.772Z,51.60
2023-02-08T19:10:38.919Z,50.90
2023-02-08T19:12:51.653Z,54.00
2023-02-08T19:15:04.629Z,96.70
2023-02-08T19:17:18.159Z,59.40
2023-02-08T19:19:30.734Z,76.90
2023-02-08T19:21:43.621Z,52.50
2023-02-08T19:23:58.312Z,53.40
2023-02-08T19:26:18.767Z,51.00
2023-02-08T19:28:35.528Z,51.50
2023-02-08T19:30:48.141Z,52.90
2023-02-08T19:33:00.972Z,53.40
2023-02-08T19:35:13.907Z,56.00
2023-02-08T19:37:26.430Z,52.30
2023-02-08T19:39:38.990Z,51.20
2023-02-08T19:41:53.055Z,54.50
2023-02-08T19:44:08.073Z,57.80
2023-02-08T19:46:23.034Z,54.50
2023-02-08T19:48:35.960Z,57.00
2023-02-08T19:51:00.766Z,62.20
2023-02-08T19:53:13.548Z,59.60
2023-02-08T19:55:26.176Z,57.60
2023-02-08T19:57:40.227Z,56.50
2023-02-08T19:59:53.324Z,60.30
2023-02-08T20:02:06.917Z,56.60
2023-02-08T20:04:20.951Z,57.20
2023-02-08T20:06:37.088Z,61.10
2023-02-08T20:08:50.278Z,61.20
2023-02-08T20:11:02.809Z,63.40
2023-02-08T20:13:15.816Z,62.50
2023-02-08T20:15:28.338Z,64.20
2023-02-08T20:17:42.573Z,65.40
2023-02-08T20:19:55.351Z,65.10
2023-02-08T20:22:08.009Z,65.40
2023-02-08T20:24:21.320Z,65.60
2023-02-08T20:26:33.887Z,64.30
2023-02-08T20:28:50.726Z,59.30
2023-02-08T20:31:15.262Z,61.70
2023-02-08T20:33:27.905Z,60.70
2023-02-08T20:35:40.382Z,65.00
2023-02-08T20:37:52.914Z,65.00
2023-02-08T20:40:05.847Z,64.10
2023-02-08T20:42:18.448Z,63.10
2023-02-08T20:44:31.952Z,66.60
2023-02-08T20:46:46.694Z,65.40
2023-02-08T20:49:01.001Z,62.50
2023-02-08T20:51:16.914Z,64.10
2023-02-08T20:53:29.742Z,61.60
2023-02-08T20:55:43.498Z,60.90
2023-02-08T20:57:56.482Z,60.50
2023-02-08T21:00:10.242Z,63.70
2023-02-08T21:02:23.522Z,60.90
2023-02-08T21:04:36.246Z,61.40
2023-02-08T21:06:50.455Z,63.10
2023-02-08T21:09:08.770Z,67.80
2023-02-08T21:11:24.116Z,66.60
2023-02-08T21:13:36.937Z,72.50
2023-02-08T21:15:49.566Z,70.40
2023-02-08T21:18:02.251Z,68.40
2023-02-08T21:20:15.446Z,64.20
2023-02-08T21:22:28.130Z,65.50
2023-02-08T21:24:40.680Z,66.30
2023-02-08T21:26:56.072Z,63.30
2023-02-08T21:29:08.754Z,69.40
2023-02-08T21:31:23.629Z,67.80
2023-02-08T21:33:36.293Z,72.30
2023-02-08T21:35:48.995Z,70.30
2023-02-08T21:38:02.350Z,73.70
2023-02-08T21:40:15.167Z,70.10
2023-02-08T21:42:27.792Z,68.70
2023-02-08T21:44:40.347Z,70.80
2023-02-08T21:46:52.981Z,69.70
2023-02-08T21:49:24.414Z,63.40
2023-02-08T21:51:55.990Z,64.10
2023-02-08T21:54:30.800Z,64.30
2023-02-08T21:56:43.342Z,58.80
2023-02-08T21:58:55.983Z,58.80
2023-02-08T22:01:08.754Z,69.40
2023-02-08T22:03:21.431Z,67.40
2023-02-08T22:05:52.344Z,64.90
2023-02-08T22:08:05.162Z,66.40
2023-02-08T22:10:20.906Z,68.30
2023-02-08T22:12:33.424Z,66.40
2023-02-08T22:14:46.399Z,67.70
2023-02-08T22:16:58.970Z,66.80
2023-02-08T22:19:11.536Z,71.40
2023-02-08T22:21:24.137Z,67.40
2023-02-08T22:23:36.728Z,66.10
2023-02-08T22:25:49.240Z,68.00
2023-02-08T22:28:02.060Z,66.30
2023-02-08T22:30:18.097Z,67.00
2023-02-08T22:32:30.688Z,64.80
2023-02-08T22:34:46.819Z,62.60
2023-02-08T22:37:03.616Z,68.80
2023-02-08T22:39:16.144Z,65.80
2023-02-08T22:41:28.771Z,67.10
2023-02-08T22:43:41.859Z,68.90
2023-02-08T22:45:59.336Z,66.40
2023-02-08T22:48:12.071Z,65.20
2023-02-08T22:50:24.603Z,67.80
2023-02-08T22:52:37.189Z,67.30
2023-02-08T22:54:51.361Z,65.40
2023-02-08T22:57:06.064Z,67.30
2023-02-08T22:59:19.000Z,67.40
2023-02-08T23:01:31.567Z,69.20
2023-02-08T23:03:44.366Z,65.80
2023-02-08T23:05:57.099Z,66.20
2023-02-08T23:08:11.099Z,62.70
2023-02-08T23:10:23.741Z,61.00
2023-02-08T23:12:36.359Z,60.10
2023-02-08T23:14:49.978Z,57.70
2023-02-08T23:17:02.645Z,52.80
2023-02-08T23:19:16.886Z,56.60
2023-02-08T23:21:29.511Z,54.60
2023-02-08T23:23:42.827Z,55.70
2023-02-08T23:25:55.548Z,56.80
2023-02-08T23:28:10.403Z,56.90
2023-02-08T23:30:22.996Z,58.10
2023-02-08T23:32:35.571Z,57.30
2023-02-08T23:34:48.091Z,58.30
2023-02-08T23:37:00.660Z,56.60
2023-02-08T23:39:13.265Z,55.80
2023-02-08T23:41:25.892Z,59.10
2023-02-08T23:43:38.537Z,57.30
2023-02-08T23:45:51.094Z,54.50
2023-02-08T23:48:03.682Z,53.30
2023-02-08T23:50:16.348Z,52.50
2023-02-08T23:52:28.951Z,51.00
2023-02-08T23:54:42.236Z,50.20
2023-02-08T23:56:54.835Z,49.50
2023-02-08T23:59:08.314Z,49.80
